Time;durP1;ratioP1;P1;durP2;ratioP2;P2;SDS_P1;SDS_P2;PMS_P1;PMS_P2;Temp;Humidity;BMP_temperature;BMP_pressure;BME280_temperature;BME280_humidity;BME280_pressure;Samples;Min_cycle;Max_cycle;Signal;HPM_P1;HPM_P2
2023/10/11 00:00:24;;;;;;;9.82;4.57;;;;;;;;;;5039108;28;20033;-83
2023/10/11 00:02:49;;;;;;;10.48;4.20;;;;;;;;;;5039736;28;20028;-84
2023/10/11 00:05:15;;;;;;;10.50;3.87;;;;;;;;;;5042784;28;20082;-84
2023/10/11 00:07:42;;;;;;;7.90;4.18;;;;;;;;;;5042040;28;20268;-83
2023/10/11 00:10:10;;;;;;;8.68;4.38;;;;;;;;;;5039204;28;20029;-83
2023/10/11 00:12:36;;;;;;;9.00;4.45;;;;;;;;;;5042715;28;20401;-84
2023/10/11 00:15:02;;;;;;;8.13;4.20;;;;;;;;;;5042685;28;20028;-82
2023/10/11 00:17:28;;;;;;;8.23;3.83;;;;;;;;;;5046835;28;20033;-82
2023/10/11 00:19:53;;;;;;;11.07;4.10;;;;;;;;;;5043801;28;20037;-82
2023/10/11 00:22:18;;;;;;;13.82;4.75;;;;;;;;;;5043498;28;20416;-82
2023/10/11 00:24:44;;;;;;;8.50;4.05;;;;;;;;;;5040809;28;20028;-82
2023/10/11 00:27:10;;;;;;;8.60;4.38;;;;;;;;;;5044524;28;20550;-82
2023/10/11 00:29:39;;;;;;;11.82;3.95;;;;;;;;;;5044538;28;20053;-82
2023/10/11 00:32:04;;;;;;;10.18;4.68;;;;;;;;;;5060691;28;20021;-82
2023/10/11 00:34:32;;;;;;;10.75;4.75;;;;;;;;;;5046356;28;20386;-82
2023/10/11 00:36:58;;;;;;;8.25;4.38;;;;;;;;;;5043859;28;20091;-82
2023/10/11 00:39:24;;;;;;;9.18;4.30;;;;;;;;;;5043316;28;20032;-82
2023/10/11 00:41:49;;;;;;;10.68;4.68;;;;;;;;;;5041503;28;20478;-83
2023/10/11 00:44:19;;;;;;;10.13;4.18;;;;;;;;;;5044084;28;20019;-82
2023/10/11 00:46:57;;;;;;;7.10;3.97;;;;;;;;;;5041093;28;20034;-82
2023/10/11 00:49:23;;;;;;;9.98;4.95;;;;;;;;;;5047995;28;20048;-83
2023/10/11 00:51:49;;;;;;;11.32;4.63;;;;;;;;;;5048050;28;20029;-83
2023/10/11 00:54:15;;;;;;;8.70;4.32;;;;;;;;;;5044439;28;20362;-83
2023/10/11 00:56:43;;;;;;;10.27;4.85;;;;;;;;;;5053287;28;20045;-82
2023/10/11 00:59:11;;;;;;;10.85;4.25;;;;;;;;;;5043489;28;20055;-83
2023/10/11 01:01:38;;;;;;;8.88;4.35;;;;;;;;;;5039936;28;20036;-82
2023/10/11 01:04:06;;;;;;;10.13;4.63;;;;;;;;;;5035752;28;20466;-82
2023/10/11 01:06:34;;;;;;;7.22;4.20;;;;;;;;;;5046723;28;20151;-83
2023/10/11 01:08:59;;;;;;;10.30;3.55;;;;;;;;;;5041111;28;20029;-83
2023/10/11 01:11:26;;;;;;;8.73;4.38;;;;;;;;;;5042357;28;20029;-83
2023/10/11 01:13:51;;;;;;;9.15;4.90;;;;;;;;;;5042143;28;20493;-83
2023/10/11 01:16:18;;;;;;;10.93;4.10;;;;;;;;;;5042349;28;20021;-83
2023/10/11 01:18:43;;;;;;;10.68;4.45;;;;;;;;;;5042899;28;20037;-83
2023/10/11 01:21:09;;;;;;;9.68;4.00;;;;;;;;;;5039618;28;20029;-83
2023/10/11 01:23:34;;;;;;;11.10;4.50;;;;;;;;;;5042601;28;20028;-83
2023/10/11 01:26:09;;;;;;;8.75;4.45;;;;;;;;;;5042997;28;20032;-83
2023/10/11 01:28:38;;;;;;;10.57;4.60;;;;;;;;;;5040201;28;20117;-83
2023/10/11 01:31:08;;;;;;;8.85;4.03;;;;;;;;;;5040318;28;20481;-83
2023/10/11 01:33:40;;;;;;;12.48;5.57;;;;;;;;;;5047982;28;20029;-84
2023/10/11 01:36:06;;;;;;;9.80;4.50;;;;;;;;;;5042897;28;20501;-82
2023/10/11 01:38:33;;;;;;;9.18;4.78;;;;;;;;;;5040909;28;20029;-82
2023/10/11 01:40:59;;;;;;;7.95;4.45;;;;;;;;;;5043134;28;20034;-82
2023/10/11 01:43:25;;;;;;;7.93;3.58;;;;;;;;;;5041149;28;20493;-84
2023/10/11 01:45:50;;;;;;;8.88;4.53;;;;;;;;;;5046253;28;20082;-84
2023/10/11 01:48:17;;;;;;;8.82;3.92;;;;;;;;;;5043695;28;20104;-83
2023/10/11 01:50:43;;;;;;;9.13;4.60;;;;;;;;;;5038993;28;20463;-84
2023/10/11 01:53:08;;;;;;;11.70;5.63;;;;;;;;;;5042506;28;20025;-84
2023/10/11 01:55:35;;;;;;;11.80;4.60;;;;;;;;;;5039350;28;20280;-83
2023/10/11 01:58:00;;;;;;;11.05;4.57;;;;;;;;;;5041942;28;20040;-83
2023/10/11 02:00:29;;;;;;;9.38;4.55;;;;;;;;;;5039404;28;20029;-84
2023/10/11 02:02:57;;;;;;;8.27;4.32;;;;;;;;;;5038446;28;20389;-83
2023/10/11 02:05:23;;;;;;;10.68;4.47;;;;;;;;;;5037167;28;20547;-83
2023/10/11 02:07:48;;;;;;;14.30;4.78;;;;;;;;;;5040525;28;20025;-84
2023/10/11 02:10:13;;;;;;;11.30;4.60;;;;;;;;;;5046698;28;20033;-83
2023/10/11 02:12:45;;;;;;;9.30;4.32;;;;;;;;;;5046306;28;20021;-83
2023/10/11 02:15:28;;;;;;;8.88;3.80;;;;;;;;;;5045089;28;20477;-84
2023/10/11 02:17:57;;;;;;;7.38;3.58;;;;;;;;;;5042753;28;20052;-83
2023/10/11 02:20:22;;;;;;;8.43;4.40;;;;;;;;;;5048182;28;20036;-83
2023/10/11 02:22:55;;;;;;;11.05;3.90;;;;;;;;;;5043143;28;20033;-83
2023/10/11 02:25:24;;;;;;;11.52;4.38;;;;;;;;;;5029933;28;20104;-81
2023/10/11 02:27:50;;;;;;;10.15;4.45;;;;;;;;;;5045427;28;20125;-81
2023/10/11 02:30:20;;;;;;;10.27;4.55;;;;;;;;;;5046993;28;20056;-81
2023/10/11 02:32:46;;;;;;;8.90;4.20;;;;;;;;;;5044381;28;20083;-81
2023/10/11 02:35:13;;;;;;;9.68;4.57;;;;;;;;;;5045669;28;20033;-81
2023/10/11 02:37:39;;;;;;;8.50;4.90;;;;;;;;;;5042514;28;20068;-81
2023/10/11 02:40:10;;;;;;;8.82;4.70;;;;;;;;;;5043375;28;20597;-81
2023/10/11 02:42:36;;;;;;;9.30;4.68;;;;;;;;;;5052724;28;20482;-81
2023/10/11 02:45:06;;;;;;;7.50;4.05;;;;;;;;;;5044548;28;20034;-82
2023/10/11 02:47:32;;;;;;;7.25;3.38;;;;;;;;;;5047271;28;20516;-82
2023/10/11 02:50:04;;;;;;;9.50;4.38;;;;;;;;;;5043985;28;20028;-82
2023/10/11 02:52:36;;;;;;;8.80;4.28;;;;;;;;;;5044516;28;20022;-83
2023/10/11 02:55:20;;;;;;;9.90;3.92;;;;;;;;;;5050449;28;20103;-83
2023/10/11 02:57:45;;;;;;;11.05;5.03;;;;;;;;;;5042735;28;20100;-83
2023/10/11 03:00:21;;;;;;;10.93;4.43;;;;;;;;;;5045370;28;20026;-82
2023/10/11 03:02:54;;;;;;;12.30;5.45;;;;;;;;;;5041538;28;20040;-82
2023/10/11 03:05:20;;;;;;;9.83;4.50;;;;;;;;;;5048316;28;20029;-83
2023/10/11 03:07:46;;;;;;;11.65;4.57;;;;;;;;;;5042525;28;20022;-82
2023/10/11 03:10:13;;;;;;;10.55;5.20;;;;;;;;;;5046079;28;20029;-82
2023/10/11 03:12:39;;;;;;;11.00;6.32;;;;;;;;;;5042509;28;20029;-82
2023/10/11 03:15:11;;;;;;;13.32;5.32;;;;;;;;;;5042014;28;20040;-83
2023/10/11 03:17:43;;;;;;;10.02;4.93;;;;;;;;;;5046880;28;20029;-84
2023/10/11 03:20:25;;;;;;;9.88;5.22;;;;;;;;;;5049991;28;20032;-84
2023/10/11 03:22:51;;;;;;;11.70;5.70;;;;;;;;;;5043999;28;20037;-84
2023/10/11 03:25:19;;;;;;;11.57;5.13;;;;;;;;;;5041056;28;20033;-83
2023/10/11 03:27:49;;;;;;;11.23;5.28;;;;;;;;;;5040970;28;20033;-83
2023/10/11 03:30:15;;;;;;;13.20;6.15;;;;;;;;;;5046168;28;20561;-83
2023/10/11 03:32:43;;;;;;;14.35;5.22;;;;;;;;;;5026196;28;20025;-83
2023/10/11 03:35:10;;;;;;;8.35;4.40;;;;;;;;;;5040429;28;20028;-82
2023/10/11 03:37:37;;;;;;;9.90;4.35;;;;;;;;;;5043192;28;20033;-83
2023/10/11 03:40:12;;;;;;;10.35;4.95;;;;;;;;;;5042722;28;20048;-83
2023/10/11 03:42:53;;;;;;;7.85;4.18;;;;;;;;;;5040696;28;20076;-83
2023/10/11 03:45:20;;;;;;;11.63;5.32;;;;;;;;;;5056548;28;20029;-82
2023/10/11 03:47:47;;;;;;;9.98;4.93;;;;;;;;;;5047481;28;20397;-83
2023/10/11 03:50:12;;;;;;;10.52;5.65;;;;;;;;;;5047683;28;20517;-83
2023/10/11 03:52:40;;;;;;;10.48;5.15;;;;;;;;;;5041302;28;20060;-84
2023/10/11 03:55:09;;;;;;;13.30;5.60;;;;;;;;;;5046438;28;20532;-82
2023/10/11 03:57:37;;;;;;;14.07;4.68;;;;;;;;;;5048035;28;20501;-84
2023/10/11 04:02:46;;;;;;;11.23;5.45;;;;;;;;;;5041359;28;20092;-84
2023/10/11 04:05:11;;;;;;;10.68;5.45;;;;;;;;;;5050275;28;20439;-85
2023/10/11 04:07:37;;;;;;;11.15;5.43;;;;;;;;;;5042103;28;20029;-85
2023/10/11 04:10:09;;;;;;;12.07;5.77;;;;;;;;;;5039420;28;20029;-85
2023/10/11 04:12:37;;;;;;;12.05;5.28;;;;;;;;;;5041913;28;20279;-85
2023/10/11 04:15:14;;;;;;;12.45;5.43;;;;;;;;;;5043510;28;20033;-84
2023/10/11 04:17:39;;;;;;;10.63;4.70;;;;;;;;;;5035003;28;20442;-84
2023/10/11 04:20:29;;;;;;;10.32;4.82;;;;;;;;;;5045223;28;20025;-84
2023/10/11 04:23:01;;;;;;;8.65;4.35;;;;;;;;;;5041702;28;20022;-84
2023/10/11 04:25:26;;;;;;;9.68;5.60;;;;;;;;;;5038985;28;20041;-85
2023/10/11 04:27:56;;;;;;;11.50;5.15;;;;;;;;;;5040808;28;20041;-84
2023/10/11 04:30:27;;;;;;;11.98;4.75;;;;;;;;;;5043179;28;20040;-84
2023/10/11 04:32:56;;;;;;;10.15;4.70;;;;;;;;;;5048540;28;20494;-84
2023/10/11 04:35:24;;;;;;;9.73;5.10;;;;;;;;;;5034046;28;20027;-84
2023/10/11 04:38:00;;;;;;;8.00;4.18;;;;;;;;;;5039287;28;20434;-85
2023/10/11 04:40:40;;;;;;;11.48;4.25;;;;;;;;;;5037608;28;20040;-85
2023/10/11 04:43:25;;;;;;;16.13;4.85;;;;;;;;;;5039735;28;20114;-83
2023/10/11 04:45:51;;;;;;;9.85;4.50;;;;;;;;;;5043256;28;20555;-83
2023/10/11 04:48:29;;;;;;;11.85;5.97;;;;;;;;;;5044137;28;20034;-84
2023/10/11 04:50:55;;;;;;;14.15;6.00;;;;;;;;;;5040834;28;20025;-85
2023/10/11 04:53:22;;;;;;;11.52;6.10;;;;;;;;;;5053955;28;20108;-83
2023/10/11 04:55:59;;;;;;;15.85;6.78;;;;;;;;;;5036487;28;20046;-83
2023/10/11 04:58:42;;;;;;;10.57;5.75;;;;;;;;;;5038462;28;20536;-83
2023/10/11 05:01:11;;;;;;;11.15;5.28;;;;;;;;;;5038499;28;20037;-83
2023/10/11 05:03:39;;;;;;;12.52;6.13;;;;;;;;;;5034610;28;20029;-85
2023/10/11 05:06:12;;;;;;;10.98;5.65;;;;;;;;;;5037813;28;20036;-84
2023/10/11 05:08:51;;;;;;;11.48;5.97;;;;;;;;;;5030679;28;20030;-83
2023/10/11 05:11:32;;;;;;;10.85;6.20;;;;;;;;;;5034659;28;20076;-83
2023/10/11 05:14:10;;;;;;;10.10;4.82;;;;;;;;;;5040546;28;20056;-83
2023/10/11 05:16:37;;;;;;;12.05;5.53;;;;;;;;;;5035079;28;20037;-84
2023/10/11 05:19:05;;;;;;;9.07;4.30;;;;;;;;;;5051054;28;20029;-84
2023/10/11 05:21:38;;;;;;;11.27;4.70;;;;;;;;;;5037377;28;20392;-83
2023/10/11 05:24:14;;;;;;;12.43;5.18;;;;;;;;;;5038312;28;20075;-84
2023/10/11 05:26:48;;;;;;;12.90;5.72;;;;;;;;;;5035907;28;20037;-84
2023/10/11 05:29:24;;;;;;;16.92;5.88;;;;;;;;;;5042792;28;20037;-82
2023/10/11 05:34:50;;;;;;;15.65;5.55;;;;;;;;;;5033568;28;20060;-82
2023/10/11 05:50:55;;;;;;;10.52;4.93;;;;;;;;;;5055672;28;20148;-86
2023/10/11 05:53:20;;;;;;;15.47;7.37;;;;;;;;;;5047291;28;20546;-86
2023/10/11 05:55:46;;;;;;;15.02;7.10;;;;;;;;;;5040681;28;20323;-86
2023/10/11 05:58:13;;;;;;;11.90;6.50;;;;;;;;;;5041419;28;20037;-86
2023/10/11 06:00:39;;;;;;;10.27;5.40;;;;;;;;;;5040367;28;20033;-86
2023/10/11 06:03:05;;;;;;;9.27;4.65;;;;;;;;;;5041838;28;20120;-86
2023/10/11 06:05:39;;;;;;;9.43;4.60;;;;;;;;;;5042402;28;20045;-86
2023/10/11 06:08:04;;;;;;;13.43;4.82;;;;;;;;;;5046301;28;20032;-86
2023/10/11 06:10:41;;;;;;;10.68;4.45;;;;;;;;;;5041644;28;20029;-86
2023/10/11 06:13:13;;;;;;;9.73;4.63;;;;;;;;;;5036116;28;20036;-86
2023/10/11 06:15:42;;;;;;;9.20;4.40;;;;;;;;;;5041421;28;20120;-85
2023/10/11 06:18:26;;;;;;;11.45;5.93;;;;;;;;;;5041609;28;20417;-86
2023/10/11 06:21:01;;;;;;;9.82;4.95;;;;;;;;;;5054299;28;20029;-86
2023/10/11 06:23:26;;;;;;;10.57;4.63;;;;;;;;;;5041843;28;20029;-86
2023/10/11 06:25:53;;;;;;;11.17;5.00;;;;;;;;;;5039339;28;20559;-86
2023/10/11 06:28:18;;;;;;;10.35;4.95;;;;;;;;;;5036929;28;20268;-86
2023/10/11 06:30:46;;;;;;;13.63;5.43;;;;;;;;;;5040550;28;20056;-86
2023/10/11 06:33:12;;;;;;;10.20;4.50;;;;;;;;;;5058048;28;20029;-86
2023/10/11 06:35:43;;;;;;;11.90;4.47;;;;;;;;;;5042391;28;20084;-86
2023/10/11 06:38:09;;;;;;;12.02;4.50;;;;;;;;;;5041456;28;20037;-86
2023/10/11 06:40:38;;;;;;;11.38;5.10;;;;;;;;;;5040955;28;20076;-86
2023/10/11 06:43:07;;;;;;;11.27;4.82;;;;;;;;;;5064491;22;20417;-81
2023/10/11 06:45:33;;;;;;;7.82;4.32;;;;;;;;;;5076218;28;20051;-82
2023/10/11 06:48:06;;;;;;;9.07;4.90;;;;;;;;;;5076242;28;20012;-81
2023/10/11 06:50:35;;;;;;;8.27;4.25;;;;;;;;;;5059102;28;20625;-81
2023/10/11 06:53:03;;;;;;;9.88;5.00;;;;;;;;;;5078789;28;20032;-81
2023/10/11 06:55:28;;;;;;;7.72;4.07;;;;;;;;;;5079692;28;20389;-81
2023/10/11 06:57:54;;;;;;;12.35;4.75;;;;;;;;;;5076680;28;20031;-80
2023/10/11 07:00:24;;;;;;;12.63;5.00;;;;;;;;;;5075003;28;20054;-80
2023/10/11 07:02:52;;;;;;;11.73;4.95;;;;;;;;;;5060566;28;20078;-81
2023/10/11 07:05:17;;;;;;;9.55;4.70;;;;;;;;;;5082799;28;20492;-81
2023/10/11 07:07:50;;;;;;;12.20;4.38;;;;;;;;;;5069601;28;20036;-82
2023/10/11 07:10:28;;;;;;;9.05;4.43;;;;;;;;;;5059884;28;20039;-81
2023/10/11 07:13:03;;;;;;;10.27;4.57;;;;;;;;;;5074673;28;20031;-80
2023/10/11 07:15:37;;;;;;;10.13;4.13;;;;;;;;;;5058729;28;20033;-81
2023/10/11 07:18:08;;;;;;;8.82;4.93;;;;;;;;;;5056097;28;20438;-81
2023/10/11 07:20:48;;;;;;;19.83;7.75;;;;;;;;;;5050868;28;20571;-81
2023/10/11 07:23:19;;;;;;;14.80;6.80;;;;;;;;;;5076385;28;20487;-81
2023/10/11 07:25:46;;;;;;;12.32;5.82;;;;;;;;;;5065412;28;20089;-81
2023/10/11 07:28:15;;;;;;;10.98;5.05;;;;;;;;;;5059157;28;20557;-81
2023/10/11 07:30:40;;;;;;;11.20;4.75;;;;;;;;;;5047964;28;20024;-81
2023/10/11 07:33:06;;;;;;;9.48;4.20;;;;;;;;;;5079020;28;20027;-80
2023/10/11 07:35:33;;;;;;;10.13;4.13;;;;;;;;;;5058932;28;20063;-81
2023/10/11 07:38:00;;;;;;;10.73;4.68;;;;;;;;;;5057805;28;20037;-81
2023/10/11 07:40:34;;;;;;;11.63;4.38;;;;;;;;;;5065252;28;20025;-81
2023/10/11 07:42:59;;;;;;;10.68;3.92;;;;;;;;;;5059412;28;20039;-80
2023/10/11 07:45:26;;;;;;;8.43;3.80;;;;;;;;;;5074738;28;20033;-81
2023/10/11 07:47:52;;;;;;;11.60;4.65;;;;;;;;;;5082250;28;20032;-81
2023/10/11 07:50:22;;;;;;;9.30;3.75;;;;;;;;;;5079524;28;20032;-81
2023/10/11 07:52:47;;;;;;;7.93;4.07;;;;;;;;;;5062549;28;20024;-81
2023/10/11 07:55:13;;;;;;;6.40;3.47;;;;;;;;;;5059773;28;20056;-80
2023/10/11 07:57:44;;;;;;;11.00;4.05;;;;;;;;;;5064140;28;20039;-81
2023/10/11 08:00:17;;;;;;;10.90;5.18;;;;;;;;;;5080662;28;20058;-81
2023/10/11 08:02:42;;;;;;;8.65;4.68;;;;;;;;;;5079958;28;20036;-81
2023/10/11 08:05:12;;;;;;;8.98;4.95;;;;;;;;;;5063140;28;20091;-81
2023/10/11 08:07:37;;;;;;;9.25;5.15;;;;;;;;;;5079936;28;20036;-81
2023/10/11 08:10:29;;;;;;;11.75;4.13;;;;;;;;;;5078943;28;20020;-80
2023/10/11 08:12:48;;;;;;;13.20;4.60;;;;;;;;;;5060570;28;20519;-79
2023/10/11 08:15:15;;;;;;;7.57;3.55;;;;;;;;;;5079155;28;20021;-81
2023/10/11 08:17:40;;;;;;;9.35;4.40;;;;;;;;;;5076201;28;20025;-81
2023/10/11 08:20:09;;;;;;;14.25;4.57;;;;;;;;;;5064337;28;20028;-80
2023/10/11 08:22:35;;;;;;;8.85;4.10;;;;;;;;;;5079318;28;20558;-81
2023/10/11 08:25:01;;;;;;;7.60;3.92;;;;;;;;;;5064175;28;20036;-80
2023/10/11 08:27:29;;;;;;;9.27;3.60;;;;;;;;;;5082034;28;20480;-80
2023/10/11 08:30:17;;;;;;;11.73;4.88;;;;;;;;;;5064888;28;20100;-81
2023/10/11 08:32:43;;;;;;;12.32;4.07;;;;;;;;;;5072067;28;20033;-80
2023/10/11 08:35:09;;;;;;;9.25;4.25;;;;;;;;;;5066465;28;20044;-81
2023/10/11 08:37:35;;;;;;;9.23;4.18;;;;;;;;;;5079661;28;20484;-80
2023/10/11 08:40:08;;;;;;;8.20;4.20;;;;;;;;;;5065015;28;20025;-81
2023/10/11 08:42:35;;;;;;;10.07;3.92;;;;;;;;;;5080302;28;20484;-81
2023/10/11 08:45:01;;;;;;;9.90;4.95;;;;;;;;;;5044068;28;20477;-80
2023/10/11 08:47:26;;;;;;;10.70;4.57;;;;;;;;;;5074560;28;20055;-81
2023/10/11 08:49:54;;;;;;;7.60;4.30;;;;;;;;;;5058837;28;20705;-81
2023/10/11 08:52:24;;;;;;;8.27;4.50;;;;;;;;;;5076485;28;20055;-81
2023/10/11 08:54:50;;;;;;;10.38;3.97;;;;;;;;;;5071813;28;20260;-82
2023/10/11 08:57:23;;;;;;;10.63;4.50;;;;;;;;;;5078873;28;20103;-80
2023/10/11 08:59:57;;;;;;;8.95;4.45;;;;;;;;;;5076075;28;20035;-81
2023/10/11 09:02:30;;;;;;;7.55;4.07;;;;;;;;;;5078702;28;20554;-81
2023/10/11 09:05:18;;;;;;;7.63;4.00;;;;;;;;;;5062482;28;20086;-81
2023/10/11 09:07:46;;;;;;;12.40;4.18;;;;;;;;;;5062527;28;20069;-81
2023/10/11 09:10:25;;;;;;;7.82;3.55;;;;;;;;;;5076599;28;20040;-82
2023/10/11 09:12:56;;;;;;;10.52;3.78;;;;;;;;;;5080191;28;20029;-81
2023/10/11 09:15:21;;;;;;;7.47;3.53;;;;;;;;;;5057293;28;20500;-81
2023/10/11 09:17:50;;;;;;;7.80;3.47;;;;;;;;;;5059648;28;20068;-81
2023/10/11 09:20:23;;;;;;;7.13;3.78;;;;;;;;;;5077199;28;20373;-80
2023/10/11 09:22:52;;;;;;;8.82;3.22;;;;;;;;;;5055719;28;20043;-81
2023/10/11 09:25:33;;;;;;;13.30;4.95;;;;;;;;;;5078828;28;20527;-81
2023/10/11 09:27:58;;;;;;;7.78;3.85;;;;;;;;;;5068537;28;20051;-81
2023/10/11 09:30:26;;;;;;;7.63;3.70;;;;;;;;;;5056218;28;20033;-81
2023/10/11 09:32:52;;;;;;;14.27;5.53;;;;;;;;;;5058062;28;20500;-81
2023/10/11 09:35:23;;;;;;;10.02;3.50;;;;;;;;;;5078048;28;20053;-82
2023/10/11 09:37:48;;;;;;;8.43;3.58;;;;;;;;;;5075961;28;20396;-82
2023/10/11 09:40:16;;;;;;;9.33;4.37;;;;;;;;;;5079742;28;20035;-81
2023/10/11 09:42:43;;;;;;;8.48;3.40;;;;;;;;;;5054647;28;20294;-81
2023/10/11 09:45:16;;;;;;;10.10;3.92;;;;;;;;;;5074636;28;20046;-81
2023/10/11 09:47:42;;;;;;;11.52;3.65;;;;;;;;;;5060852;28;20492;-81
2023/10/11 09:50:13;;;;;;;7.05;4.00;;;;;;;;;;5064705;28;20097;-81
2023/10/11 09:52:39;;;;;;;;;;;;;;;;;;5076631;28;20066;-81
2023/10/11 09:55:08;;;;;;;9.30;3.72;;;;;;;;;;5062308;28;19912;-81
2023/10/11 09:57:50;;;;;;;10.40;4.30;;;;;;;;;;5070662;28;20035;-81
2023/10/11 10:00:25;;;;;;;8.75;4.15;;;;;;;;;;5078315;28;20028;-79
2023/10/11 10:02:51;;;;;;;9.70;3.45;;;;;;;;;;5072729;28;20071;-80
2023/10/11 10:05:17;;;;;;;9.02;4.18;;;;;;;;;;5063027;28;20039;-80
2023/10/11 10:07:42;;;;;;;8.88;3.67;;;;;;;;;;5061867;28;20041;-80
2023/10/11 10:10:10;;;;;;;7.70;3.50;;;;;;;;;;5077974;28;20166;-80
2023/10/11 10:12:43;;;;;;;9.13;3.55;;;;;;;;;;5078930;28;20025;-80
2023/10/11 10:15:11;;;;;;;9.18;3.58;;;;;;;;;;5062772;28;20031;-80
2023/10/11 10:17:42;;;;;;;8.13;3.35;;;;;;;;;;5058364;28;20028;-81
2023/10/11 10:20:28;;;;;;;8.30;3.88;;;;;;;;;;5058804;28;20033;-80
2023/10/11 10:23:12;;;;;;;7.70;3.45;;;;;;;;;;5078204;28;20506;-81
2023/10/11 10:25:37;;;;;;;7.78;3.60;;;;;;;;;;5060081;28;20028;-80
2023/10/11 10:28:03;;;;;;;8.43;3.87;;;;;;;;;;5079816;28;20028;-80
2023/10/11 10:30:48;;;;;;;8.20;4.32;;;;;;;;;;5088149;28;20074;-81
2023/10/11 10:33:21;;;;;;;9.00;3.92;;;;;;;;;;5085046;28;20115;-80
2023/10/11 10:35:48;;;;;;;8.73;3.47;;;;;;;;;;5063239;28;20029;-80
2023/10/11 10:38:13;;;;;;;8.30;3.40;;;;;;;;;;5076815;28;20138;-80
2023/10/11 10:40:42;;;;;;;10.50;4.50;;;;;;;;;;5069142;28;20472;-79
2023/10/11 10:43:20;;;;;;;11.40;3.67;;;;;;;;;;5065546;28;20036;-80
2023/10/11 10:45:47;;;;;;;7.00;3.28;;;;;;;;;;5066260;28;20028;-80
2023/10/11 10:48:18;;;;;;;13.07;3.75;;;;;;;;;;5077573;28;20116;-80
2023/10/11 10:50:47;;;;;;;10.63;3.65;;;;;;;;;;5087486;28;20028;-81
2023/10/11 10:53:14;;;;;;;6.38;2.78;;;;;;;;;;5059921;28;20056;-80
2023/10/11 10:55:42;;;;;;;10.27;3.38;;;;;;;;;;5085749;28;20111;-80
2023/10/11 10:58:07;;;;;;;6.50;3.28;;;;;;;;;;5082580;28;20032;-81
2023/10/11 11:00:35;;;;;;;6.15;3.70;;;;;;;;;;5081882;28;20028;-80
2023/10/11 11:03:00;;;;;;;8.07;3.25;;;;;;;;;;5083047;28;20033;-81
2023/10/11 11:05:29;;;;;;;7.00;4.13;;;;;;;;;;5081570;28;20028;-81
2023/10/11 11:08:15;;;;;;;6.95;3.58;;;;;;;;;;5079721;28;20487;-81
2023/10/11 11:10:54;;;;;;;7.45;3.45;;;;;;;;;;5081741;28;20028;-81
2023/10/11 11:13:19;;;;;;;7.38;3.50;;;;;;;;;;5055873;28;20029;-81
2023/10/11 11:15:44;;;;;;;7.40;3.30;;;;;;;;;;5062447;28;20044;-80
2023/10/11 11:18:11;;;;;;;9.50;3.80;;;;;;;;;;5076699;28;20033;-81
2023/10/11 11:20:40;;;;;;;9.90;3.30;;;;;;;;;;5052938;28;20153;-81
2023/10/11 11:23:05;;;;;;;10.02;3.78;;;;;;;;;;5047570;28;20025;-81
2023/10/11 11:25:34;;;;;;;14.23;3.83;;;;;;;;;;5066782;28;20489;-80
2023/10/11 11:28:15;;;;;;;11.57;3.58;;;;;;;;;;5065643;28;20687;-81
2023/10/11 11:30:43;;;;;;;7.75;3.28;;;;;;;;;;5065120;28;20062;-80
2023/10/11 11:33:20;;;;;;;8.63;3.08;;;;;;;;;;5040679;28;20020;-81
2023/10/11 11:35:54;;;;;;;9.45;3.22;;;;;;;;;;5076038;28;20501;-80
2023/10/11 11:38:21;;;;;;;8.73;3.65;;;;;;;;;;5060936;28;20501;-80
2023/10/11 11:40:51;;;;;;;9.35;3.17;;;;;;;;;;5061801;28;20036;-81
2023/10/11 11:43:17;;;;;;;10.02;3.45;;;;;;;;;;5075754;28;20044;-81
2023/10/11 11:45:44;;;;;;;11.07;3.58;;;;;;;;;;5056210;28;20029;-82
2023/10/11 11:48:09;;;;;;;12.50;3.90;;;;;;;;;;5081888;28;20508;-81
2023/10/11 11:50:34;;;;;;;8.77;3.33;;;;;;;;;;5068577;28;20024;-80
2023/10/11 11:53:00;;;;;;;11.05;4.22;;;;;;;;;;5077949;28;20274;-80
2023/10/11 11:55:26;;;;;;;10.80;3.15;;;;;;;;;;5058142;28;20032;-81
2023/10/11 11:57:51;;;;;;;6.72;3.50;;;;;;;;;;5078427;28;20081;-81
2023/10/11 12:02:55;;;;;;;9.50;3.55;;;;;;;;;;5071749;28;20107;-81
2023/10/11 12:05:21;;;;;;;6.72;3.00;;;;;;;;;;5062065;28;20086;-80
2023/10/11 12:07:49;;;;;;;8.70;3.28;;;;;;;;;;5062288;28;20025;-82
2023/10/11 12:10:23;;;;;;;9.48;3.10;;;;;;;;;;5079445;28;20032;-81
2023/10/11 12:12:50;;;;;;;9.23;3.58;;;;;;;;;;5080094;28;20036;-81
2023/10/11 12:15:16;;;;;;;6.95;3.88;;;;;;;;;;5067012;28;20028;-80
2023/10/11 12:17:42;;;;;;;12.15;3.85;;;;;;;;;;5080644;28;20036;-81
2023/10/11 12:20:12;;;;;;;9.10;4.30;;;;;;;;;;5053686;28;20476;-81
2023/10/11 12:22:42;;;;;;;8.65;3.83;;;;;;;;;;5080720;28;20294;-81
2023/10/11 12:25:08;;;;;;;11.57;3.20;;;;;;;;;;5066044;28;20031;-81
2023/10/11 12:27:33;;;;;;;8.00;3.55;;;;;;;;;;5082148;28;20403;-80
2023/10/11 12:29:59;;;;;;;8.23;3.57;;;;;;;;;;5080636;28;20029;-81
2023/10/11 12:32:24;;;;;;;8.95;3.78;;;;;;;;;;5085406;28;20300;-81
2023/10/11 12:34:51;;;;;;;11.10;3.43;;;;;;;;;;5060909;28;20024;-83
2023/10/11 12:37:16;;;;;;;9.73;3.53;;;;;;;;;;5063547;28;20021;-81
2023/10/11 12:39:41;;;;;;;6.18;3.30;;;;;;;;;;5066194;28;20487;-81
2023/10/11 12:42:11;;;;;;;8.57;3.47;;;;;;;;;;5063528;28;20020;-81
2023/10/11 12:44:40;;;;;;;9.25;3.97;;;;;;;;;;5058903;28;20040;-81
2023/10/11 12:47:10;;;;;;;13.85;3.78;;;;;;;;;;5079721;28;20048;-81
2023/10/11 12:49:35;;;;;;;10.35;3.45;;;;;;;;;;5065596;28;20119;-81
2023/10/11 12:52:05;;;;;;;7.05;3.60;;;;;;;;;;5063017;28;20054;-81
2023/10/11 12:54:31;;;;;;;7.38;4.18;;;;;;;;;;5083821;28;20100;-81
2023/10/11 12:56:56;;;;;;;8.10;3.50;;;;;;;;;;5064943;28;20136;-82
2023/10/11 12:59:22;;;;;;;8.85;3.88;;;;;;;;;;5081283;28;20036;-81
2023/10/11 13:01:52;;;;;;;8.75;3.88;;;;;;;;;;5080927;28;20198;-81
2023/10/11 13:04:18;;;;;;;8.80;4.03;;;;;;;;;;5079949;28;20069;-82
2023/10/11 13:06:49;;;;;;;7.03;4.30;;;;;;;;;;5084313;28;20123;-83
2023/10/11 13:09:15;;;;;;;11.23;4.07;;;;;;;;;;5078596;28;20041;-82
2023/10/11 13:11:46;;;;;;;9.38;3.95;;;;;;;;;;5058771;28;20458;-81
2023/10/11 13:14:18;;;;;;;8.27;4.43;;;;;;;;;;5074839;28;20040;-81
2023/10/11 13:16:45;;;;;;;9.63;3.70;;;;;;;;;;5065117;28;20041;-82
2023/10/11 13:19:10;;;;;;;10.63;3.30;;;;;;;;;;5072003;28;20190;-81
2023/10/11 13:21:35;;;;;;;8.02;3.55;;;;;;;;;;5081179;28;20060;-81
2023/10/11 13:24:08;;;;;;;9.67;3.67;;;;;;;;;;5081553;28;20028;-81
2023/10/11 13:26:33;;;;;;;8.85;3.58;;;;;;;;;;5065755;28;20062;-81
2023/10/11 13:29:01;;;;;;;10.30;4.47;;;;;;;;;;5050764;28;20042;-81
2023/10/11 13:31:29;;;;;;;8.80;3.40;;;;;;;;;;5072087;28;20067;-81
2023/10/11 13:33:54;;;;;;;7.35;3.80;;;;;;;;;;5081001;28;20107;-81
2023/10/11 13:36:21;;;;;;;9.60;4.25;;;;;;;;;;5081489;28;20496;-81
2023/10/11 13:38:46;;;;;;;8.85;3.42;;;;;;;;;;5077299;28;20039;-82
2023/10/11 13:41:12;;;;;;;11.20;3.92;;;;;;;;;;5075560;28;20024;-81
2023/10/11 13:43:37;;;;;;;7.85;4.07;;;;;;;;;;5077675;28;20044;-81
2023/10/11 13:46:06;;;;;;;8.73;4.43;;;;;;;;;;5079024;28;20028;-81
2023/10/11 13:48:39;;;;;;;8.00;3.58;;;;;;;;;;5064128;28;20081;-81
2023/10/11 13:51:06;;;;;;;10.32;4.25;;;;;;;;;;5058301;28;20082;-80
2023/10/11 13:53:40;;;;;;;12.15;3.80;;;;;;;;;;5068212;28;20070;-81
2023/10/11 13:56:10;;;;;;;10.30;3.20;;;;;;;;;;5073695;28;20032;-81
2023/10/11 13:58:36;;;;;;;7.60;3.97;;;;;;;;;;5078384;28;20075;-80
2023/10/11 14:01:03;;;;;;;11.43;4.72;;;;;;;;;;5079764;28;20036;-81
2023/10/11 14:06:20;;;;;;;9.77;3.37;;;;;;;;;;5058549;28;20067;-82
2023/10/11 14:08:44;;;;;;;8.00;4.00;;;;;;;;;;5068632;28;20365;-80
2023/10/11 14:11:14;;;;;;;7.93;3.45;;;;;;;;;;5057453;28;20385;-80
2023/10/11 14:13:39;;;;;;;10.90;3.60;;;;;;;;;;5082688;28;20085;-79
2023/10/11 14:16:05;;;;;;;9.37;4.03;;;;;;;;;;5047746;28;20024;-80
2023/10/11 14:18:33;;;;;;;6.45;3.30;;;;;;;;;;5067541;28;20064;-80
2023/10/11 14:20:58;;;;;;;6.55;3.03;;;;;;;;;;5061713;28;20504;-78
2023/10/11 14:23:27;;;;;;;8.30;3.78;;;;;;;;;;5076387;28;20107;-79
2023/10/11 14:25:53;;;;;;;12.63;4.28;;;;;;;;;;5060863;28;20061;-78
2023/10/11 14:28:18;;;;;;;7.70;3.53;;;;;;;;;;5078696;28;20033;-80
2023/10/11 14:30:49;;;;;;;8.38;3.25;;;;;;;;;;5082030;28;20035;-80
2023/10/11 14:33:17;;;;;;;10.02;4.15;;;;;;;;;;5060011;28;20017;-80
2023/10/11 14:35:43;;;;;;;10.30;4.10;;;;;;;;;;5066006;28;20039;-80
2023/10/11 14:38:09;;;;;;;9.02;3.60;;;;;;;;;;5079469;28;20400;-80
2023/10/11 14:40:35;;;;;;;8.57;3.35;;;;;;;;;;5084905;28;20077;-79
2023/10/11 14:43:00;;;;;;;7.97;3.15;;;;;;;;;;5082485;28;20033;-80
2023/10/11 14:45:26;;;;;;;9.18;3.53;;;;;;;;;;5083649;28;20557;-80
2023/10/11 14:47:52;;;;;;;10.63;3.08;;;;;;;;;;5055760;28;20032;-80
2023/10/11 14:50:23;;;;;;;6.93;3.33;;;;;;;;;;5081630;28;20020;-80
2023/10/11 14:52:48;;;;;;;8.70;3.40;;;;;;;;;;5064414;28;20144;-80
2023/10/11 14:55:17;;;;;;;8.38;3.42;;;;;;;;;;5064541;28;20028;-80
2023/10/11 14:57:52;;;;;;;9.05;3.22;;;;;;;;;;5063469;28;20047;-80
2023/10/11 15:00:25;;;;;;;6.75;2.95;;;;;;;;;;5074584;28;20029;-80
2023/10/11 15:02:51;;;;;;;6.53;2.92;;;;;;;;;;5083357;28;20468;-80
2023/10/11 15:05:16;;;;;;;9.40;3.35;;;;;;;;;;5065609;28;20035;-80
2023/10/11 15:07:42;;;;;;;9.68;3.58;;;;;;;;;;5045525;28;20124;-80
2023/10/11 15:10:10;;;;;;;9.60;3.38;;;;;;;;;;5067439;28;20055;-79
2023/10/11 15:12:35;;;;;;;6.95;3.60;;;;;;;;;;5064681;28;20035;-80